Time;durP1;ratioP1;P1;durP2;ratioP2;P2;SDS_P1;SDS_P2;PMS_P1;PMS_P2;Temp;Humidity;BMP_temperature;BMP_pressure;BME280_temperature;BME280_humidity;BME280_pressure;Samples;Min_cycle;Max_cycle;Signal;HPM_P1;HPM_P2
2021/12/07 00:01:21;;;;;;;;;;;;;;;5.43;89.60;100298.00;5097908;28;19995;-85
2021/12/07 00:03:49;;;;;;;;;;;;;;;5.49;90.68;100291.47;5096298;28;19934;-85
2021/12/07 00:06:15;;;;;;;;;;;;;;;5.56;90.18;100301.63;5097227;28;20357;-86
2021/12/07 00:08:42;;;;;;;;;;;;;;;5.61;90.20;100304.84;5097680;28;19935;-85
2021/12/07 00:11:12;;;;;;;;;;;;;;;5.66;90.52;100301.91;5098403;28;19932;-84
2021/12/07 00:13:39;;;;;;;;;;;;;;;5.71;90.52;100306.91;5097085;28;19924;-85
2021/12/07 00:16:07;;;;;;;;;;;;;;;5.73;90.51;100318.31;5100454;28;19931;-84
2021/12/07 00:18:34;;;;;;;;;;;;;;;5.78;90.71;100313.56;5094048;28;19950;-85
2021/12/07 00:21:02;;;;;;;;;;;;;;;5.84;90.50;100315.88;5099618;28;19932;-85
2021/12/07 00:23:29;;;;;;;;;;;;;;;5.88;90.47;100322.69;5098050;28;19932;-85
2021/12/07 00:25:55;;;;;;;;;;;;;;;5.92;90.18;100326.84;5097957;28;19924;-86
2021/12/07 00:28:23;;;;;;;;;;;;;;;5.95;89.90;100332.00;5097221;28;19924;-85
2021/12/07 00:30:51;;;;;;;;;;;;;;;5.97;90.02;100334.53;5093484;28;19925;-86
2021/12/07 00:33:32;;;;;;;;;;;;;;;6.00;89.99;100334.34;5098973;28;19935;-86
2021/12/07 00:36:02;;;;;;;;;;;;;;;6.03;89.70;100337.69;5098757;28;19946;-86
2021/12/07 00:38:29;;;;;;;;;;;;;;;6.05;89.28;100337.59;5092299;28;19924;-85
2021/12/07 00:40:58;;;;;;;;;;;;;;;6.06;89.41;100335.78;5102357;28;19954;-85
2021/12/07 00:43:26;;;;;;;;;;;;;;;6.07;88.91;100353.41;5084785;28;19931;-85
2021/12/07 00:45:56;;;;;;;;;;;;;;;6.11;89.06;100360.22;5096358;28;19924;-86
2021/12/07 00:48:23;;;;;;;;;;;;;;;6.15;88.98;100359.09;5079695;28;20343;-86
2021/12/07 00:50:49;;;;;;;;;;;;;;;6.16;88.84;100358.13;5095340;28;19987;-85
2021/12/07 00:53:16;;;;;;;;;;;;;;;6.17;88.60;100362.50;5097946;28;19947;-86
2021/12/07 00:55:46;;;;;;;;;;;;;;;6.22;88.67;100374.53;5099102;28;19984;-84
2021/12/07 00:58:17;;;;;;;;;;;;;;;6.26;88.59;100369.88;5100218;28;21066;-85
2021/12/07 01:00:45;;;;;;;;;;;;;;;6.28;88.31;100373.28;5094838;28;19939;-85
2021/12/07 01:03:12;;;;;;;;;;;;;;;6.33;88.27;100380.94;5095499;28;19985;-85
2021/12/07 01:05:46;;;;;;;;;;;;;;;6.34;88.08;100380.00;5098111;28;19924;-85
2021/12/07 01:08:24;;;;;;;;;;;;;;;6.35;88.27;100387.88;5100644;28;19913;-85
2021/12/07 01:31:01;;;;;;;;;;;;;;;6.41;87.40;100418.47;5084387;28;19974;-86
2021/12/07 01:33:48;;;;;;;;;;;;;;;6.43;87.78;100414.78;5095481;28;19931;-85
2021/12/07 01:42:51;;;;;;;;;;;;;;;6.48;86.36;100419.81;5092839;28;19953;-86
2021/12/07 01:45:00;;;;;;;;;;;;;;;6.48;86.77;100430.44;5090340;28;19936;-85
2021/12/07 01:47:35;;;;;;;;;;;;;;;6.48;86.08;100450.78;5072476;28;20397;-86
2021/12/07 01:53:05;;;;;;;;;;;;;;;6.51;86.48;100464.72;5097730;28;19947;-87
2021/12/07 02:00:57;;;;;;;;;;;;;;;6.54;86.09;100469.00;5070074;28;19924;-86
2021/12/07 02:03:25;;;;;;;;;;;;;;;6.53;86.20;100469.94;5097279;28;19947;-85
2021/12/07 02:05:52;;;;;;;;;;;;;;;6.55;85.79;100470.69;5098335;28;19959;-85
2021/12/07 02:08:18;;;;;;;;;;;;;;;6.55;85.33;100476.00;5102816;28;19979;-85
2021/12/07 02:10:45;;;;;;;;;;;;;;;6.55;85.67;100481.31;5100888;28;20035;-85
2021/12/07 02:13:22;;;;;;;;;;;;;;;6.54;85.52;100479.63;5105652;28;20023;-86
2021/12/07 02:15:49;;;;;;;;;;;;;;;6.54;85.12;100484.91;5085570;28;19929;-86
2021/12/07 02:18:16;;;;;;;;;;;;;;;6.54;85.43;100491.06;5103223;28;19925;-86
2021/12/07 02:20:46;;;;;;;;;;;;;;;6.55;84.82;100498.06;5103598;28;19924;-87
2021/12/07 02:23:13;;;;;;;;;;;;;;;6.54;85.02;100500.84;5104109;28;19956;-86
2021/12/07 02:25:39;;;;;;;;;;;;;;;6.53;84.40;100497.31;5104791;28;19983;-85
2021/12/07 02:28:12;;;;;;;;;;;;;;;6.55;84.48;100502.53;5103583;28;19956;-85
2021/12/07 02:30:40;;;;;;;;;;;;;;;6.55;84.78;100499.88;5099459;28;19959;-85
2021/12/07 02:33:06;;;;;;;;;;;;;;;6.56;84.71;100504.25;5100586;28;19929;-86
2021/12/07 02:35:33;;;;;;;;;;;;;;;6.54;84.18;100507.00;5099653;28;19992;-85
2021/12/07 02:38:01;;;;;;;;;;;;;;;6.54;84.29;100512.28;5101415;28;19929;-86
2021/12/07 02:40:28;;;;;;;;;;;;;;;6.54;84.59;100522.91;5102750;28;19936;-86
2021/12/07 02:42:54;;;;;;;;;;;;;;;6.55;84.55;100523.75;5101082;28;19928;-86
2021/12/07 02:45:22;;;;;;;;;;;;;;;6.53;84.56;100510.56;5100519;28;19978;-87
2021/12/07 02:47:48;;;;;;;;;;;;;;;6.53;84.28;100521.19;5102893;28;19980;-86
2021/12/07 02:50:16;;;;;;;;;;;;;;;6.51;84.51;100525.72;5098337;28;19928;-86
2021/12/07 02:52:43;;;;;;;;;;;;;;;6.53;84.43;100528.31;5098882;28;19933;-85
2021/12/07 02:55:12;;;;;;;;;;;;;;;6.51;84.38;100535.50;5101528;28;19974;-85
2021/12/07 02:57:38;;;;;;;;;;;;;;;6.49;84.33;100529.44;5099659;28;19932;-85
2021/12/07 03:00:11;;;;;;;;;;;;;;;6.47;84.23;100540.13;5099708;28;19956;-85
2021/12/07 03:02:43;;;;;;;;;;;;;;;6.47;84.09;100539.28;5102246;28;20039;-86
2021/12/07 03:05:21;;;;;;;;;;;;;;;6.47;84.16;100545.44;5096376;28;19984;-86
2021/12/07 03:08:07;;;;;;;;;;;;;;;6.47;83.99;100540.13;5099827;28;19995;-85
2021/12/07 03:27:03;;;;;;;;;;;;;;;6.53;84.04;100565.44;5099453;28;20484;-86
2021/12/07 03:29:30;;;;;;;;;;;;;;;6.55;84.15;100566.22;5100752;28;19980;-85
2021/12/07 03:31:56;;;;;;;;;;;;;;;6.55;84.29;100567.06;5099024;28;19928;-85
2021/12/07 03:34:23;;;;;;;;;;;;;;;6.55;83.98;100574.16;5097655;28;20015;-85
2021/12/07 03:36:50;;;;;;;;;;;;;;;6.54;84.38;100575.13;5097088;28;19933;-85
2021/12/07 03:39:19;;;;;;;;;;;;;;;6.53;84.21;100579.56;5095142;28;20079;-85
2021/12/07 03:41:45;;;;;;;;;;;;;;;6.56;84.28;100584.69;5102481;28;19924;-86
2021/12/07 03:44:13;;;;;;;;;;;;;;;6.56;83.85;100587.34;5097803;28;19991;-86
2021/12/07 03:46:40;;;;;;;;;;;;;;;6.56;84.52;100587.34;5099372;28;20007;-85
2021/12/07 03:49:06;;;;;;;;;;;;;;;6.55;83.74;100582.97;5097463;28;19943;-85
2021/12/07 03:51:33;;;;;;;;;;;;;;;6.56;84.56;100590.00;5095174;28;20045;-85
2021/12/07 03:53:59;;;;;;;;;;;;;;;6.57;83.96;100602.34;5097023;28;19928;-85
2021/12/07 03:56:26;;;;;;;;;;;;;;;6.56;84.21;100586.50;5091981;28;19924;-86
2021/12/07 03:58:52;;;;;;;;;;;;;;;6.55;83.96;100593.59;5100299;28;19924;-86
2021/12/07 04:01:23;;;;;;;;;;;;;;;6.56;84.36;100589.16;5104810;28;19964;-86
2021/12/07 04:03:52;;;;;;;;;;;;;;;6.58;84.53;100593.41;5101119;28;19928;-86
2021/12/07 04:06:18;;;;;;;;;;;;;;;6.60;84.31;100593.31;5101611;28;19924;-86
2021/12/07 04:08:46;;;;;;;;;;;;;;;6.59;84.07;100596.91;5101840;28;20211;-86
2021/12/07 04:11:13;;;;;;;;;;;;;;;6.59;84.28;100602.22;5100471;28;19939;-86
2021/12/07 04:13:44;;;;;;;;;;;;;;;4.57;84.32;100282.59;5102608;28;19939;-85
2021/12/07 04:16:11;;;;;;;;;;;;;;;6.62;84.16;100602.06;5097625;28;19928;-86
2021/12/07 04:18:39;;;;;;;;;;;;;;;6.61;83.57;100609.16;5101646;28;19924;-86
2021/12/07 04:21:05;;;;;;;;;;;;;;;6.61;83.87;100616.25;5101758;28;19946;-86
2021/12/07 04:23:33;;;;;;;;;;;;;;;6.58;83.85;100609.34;5099439;28;19931;-85
2021/12/07 04:26:00;;;;;;;;;;;;;;;6.58;84.30;100613.78;5099557;28;20317;-86
2021/12/07 04:28:27;;;;;;;;;;;;;;;6.58;83.74;100611.13;5098475;28;19979;-85
2021/12/07 04:30:54;;;;;;;;;;;;;;;6.57;83.79;100612.06;5097865;28;19924;-85
2021/12/07 04:33:20;;;;;;;;;;;;;;;6.56;83.35;100602.41;5096022;28;19988;-86
2021/12/07 04:35:50;;;;;;;;;;;;;;;6.54;83.59;100614.94;5097716;28;20022;-86
2021/12/07 04:38:17;;;;;;;;;;;;;;;6.55;83.72;100609.50;5092187;28;19950;-85
2021/12/07 04:40:44;;;;;;;;;;;;;;;6.53;83.32;100608.75;5094969;28;19924;-86
2021/12/07 04:43:11;;;;;;;;;;;;;;;6.50;82.96;100614.25;5097084;28;19983;-85
2021/12/07 04:45:50;;;;;;;;;;;;;;;6.49;83.53;100607.22;5093987;28;19928;-85
2021/12/07 04:59:30;;;;;;;;;;;;;;;6.48;82.82;100628.53;5092543;28;19955;-85
2021/12/07 05:01:56;;;;;;;;;;;;;;;6.47;82.51;100629.50;5094021;28;19970;-85
2021/12/07 05:04:27;;;;;;;;;;;;;;;6.45;82.90;100628.72;5094961;28;19928;-86
2021/12/07 05:07:03;;;;;;;;;;;;;;;6.42;82.98;100638.56;5093535;28;20027;-85
2021/12/07 05:09:53;;;;;;;;;;;;;;;6.42;82.66;100648.31;5091858;28;19950;-85
2021/12/07 05:12:37;;;;;;;;;;;;;;;6.42;82.76;100641.22;5094152;28;19931;-86
2021/12/07 05:15:16;;;;;;;;;;;;;;;6.39;82.62;100651.16;5098571;28;20685;-85
2021/12/07 05:18:02;;;;;;;;;;;;;;;6.39;82.33;100648.50;5099071;28;19932;-86
2021/12/07 05:39:41;;;;;;;;;;;;;;;6.41;82.45;100691.72;5096761;28;19935;-85
2021/12/07 05:42:07;;;;;;;;;;;;;;;6.40;82.49;100690.88;5091388;28;19972;-86
2021/12/07 05:44:35;;;;;;;;;;;;;;;6.40;82.44;100696.16;5095818;28;19929;-85
2021/12/07 05:47:03;;;;;;;;;;;;;;;6.40;82.21;100687.34;5093329;28;19928;-86
2021/12/07 05:49:31;;;;;;;;;;;;;;;6.39;82.42;100678.53;5096228;28;19970;-85
2021/12/07 05:51:57;;;;;;;;;;;;;;;6.40;82.24;100688.22;5095985;28;20345;-85
2021/12/07 05:54:24;;;;;;;;;;;;;;;6.41;82.43;100675.78;5094399;28;19991;-86
2021/12/07 05:56:51;;;;;;;;;;;;;;;6.41;81.74;100666.03;5095744;28;19970;-87
2021/12/07 05:59:18;;;;;;;;;;;;;;;6.42;82.20;100665.09;5093900;28;19929;-85
2021/12/07 06:01:44;;;;;;;;;;;;;;;6.42;81.92;100672.19;5098075;28;19992;-85
2021/12/07 06:04:11;;;;;;;;;;;;;;;6.42;81.86;100682.78;5093679;28;19936;-86
2021/12/07 06:06:38;;;;;;;;;;;;;;;6.42;81.69;100678.38;5094312;28;20283;-85
2021/12/07 06:09:05;;;;;;;;;;;;;;;6.43;81.82;100674.75;5094987;28;19925;-85
2021/12/07 06:11:32;;;;;;;;;;;;;;;6.43;81.42;100684.50;5094404;28;19962;-86
2021/12/07 06:14:00;;;;;;;;;;;;;;;6.40;81.30;100680.25;5095029;28;19996;-86
2021/12/07 06:16:30;;;;;;;;;;;;;;;6.38;81.14;100687.41;5094292;28;19975;-86
2021/12/07 06:18:59;;;;;;;;;;;;;;;6.36;81.29;100689.31;5092136;28;19950;-85
2021/12/07 06:21:25;;;;;;;;;;;;;;;6.31;81.31;100685.19;5093375;28;19939;-86
2021/12/07 06:23:52;;;;;;;;;;;;;;;6.33;81.21;100692.16;5097280;28;19924;-85
2021/12/07 06:26:19;;;;;;;;;;;;;;;6.32;81.33;100689.56;5077179;28;19999;-86
2021/12/07 06:28:46;;;;;;;;;;;;;;;6.29;81.25;100685.31;5091584;28;19931;-85
2021/12/07 06:31:14;;;;;;;;;;;;;;;6.26;81.50;100679.31;5092765;28;19932;-85
2021/12/07 06:33:43;;;;;;;;;;;;;;;6.22;81.37;100679.47;5097595;28;20016;-85
2021/12/07 06:36:09;;;;;;;;;;;;;;;6.22;81.73;100678.63;5092555;28;19974;-86
2021/12/07 06:38:37;;;;;;;;;;;;;;;6.22;81.49;100681.28;5096462;28;20343;-86
2021/12/07 06:41:05;;;;;;;;;;;;;;;6.23;81.70;100682.97;5095512;28;19931;-85
2021/12/07 06:43:32;;;;;;;;;;;;;;;6.23;81.75;100690.94;5093738;28;19936;-85
2021/12/07 06:45:58;;;;;;;;;;;;;;;6.19;81.43;100695.56;5079653;28;19928;-85
2021/12/07 06:48:26;;;;;;;;;;;;;;;6.18;81.15;100693.84;5101361;28;19924;-85
2021/12/07 06:50:53;;;;;;;;;;;;;;;6.14;81.49;100689.66;5096173;28;19988;-85
2021/12/07 06:53:20;;;;;;;;;;;;;;;6.11;81.87;100686.34;5095752;28;19924;-85
2021/12/07 06:55:46;;;;;;;;;;;;;;;6.10;81.74;100692.56;5102293;28;19935;-85
2021/12/07 06:58:13;;;;;;;;;;;;;;;6.09;81.78;100691.72;5080868;28;20031;-86
2021/12/07 07:00:40;;;;;;;;;;;;;;;6.09;82.02;100688.22;5101370;28;20012;-86
2021/12/07 07:03:06;;;;;;;;;;;;;;;6.08;81.86;100686.50;5101434;28;19924;-85
2021/12/07 07:05:34;;;;;;;;;;;;;;;6.09;81.62;100686.41;5098061;28;19968;-86
2021/12/07 07:08:02;;;;;;;;;;;;;;;6.09;81.84;100690.88;5098404;28;19933;-85
2021/12/07 07:10:28;;;;;;;;;;;;;;;6.10;82.05;100697.88;5097350;28;19951;-85
2021/12/07 07:12:55;;;;;;;;;;;;;;;6.08;81.72;100695.28;5099241;28;19963;-84
2021/12/07 07:15:21;;;;;;;;;;;;;;;6.06;81.82;100694.53;5099165;28;19975;-85
2021/12/07 07:17:48;;;;;;;;;;;;;;;6.09;82.05;100696.16;5096175;28;19924;-85
2021/12/07 07:20:15;;;;;;;;;;;;;;;6.08;82.12;100694.44;5089865;28;19991;-85
2021/12/07 07:22:43;;;;;;;;;;;;;;;6.09;82.33;100682.91;5086555;28;19978;-85
2021/12/07 07:25:11;;;;;;;;;;;;;;;6.08;82.21;100692.63;5087743;28;20008;-85
2021/12/07 07:27:38;;;;;;;;;;;;;;;6.09;82.42;100677.63;5083957;28;19991;-84
2021/12/07 07:30:05;;;;;;;;;;;;;;;6.09;82.08;100672.31;5086887;28;19964;-84
2021/12/07 07:32:32;;;;;;;;;;;;;;;6.08;82.35;100659.97;5087052;28;19939;-83
2021/12/07 07:34:58;;;;;;;;;;;;;;;6.08;82.17;100652.88;5087974;28;19928;-85
2021/12/07 07:37:25;;;;;;;;;;;;;;;6.09;82.50;100659.91;5085658;28;20027;-84
2021/12/07 07:39:52;;;;;;;;;;;;;;;6.10;82.63;100666.91;5086804;28;19993;-85
2021/12/07 07:42:19;;;;;;;;;;;;;;;6.11;81.99;100667.78;5086668;28;19941;-85
2021/12/07 07:44:46;;;;;;;;;;;;;;;6.09;82.10;100670.50;5090653;28;20388;-85
2021/12/07 07:47:12;;;;;;;;;;;;;;;6.08;82.22;100671.44;5092470;28;19970;-84
2021/12/07 07:49:39;;;;;;;;;;;;;;;6.11;82.83;100675.72;5093100;28;20443;-84
2021/12/07 07:52:05;;;;;;;;;;;;;;;6.09;82.45;100681.13;5091235;28;19999;-84
2021/12/07 07:54:32;;;;;;;;;;;;;;;6.10;82.45;100679.31;5095618;28;19948;-84
2021/12/07 07:57:00;;;;;;;;;;;;;;;6.10;82.77;100672.19;5094576;28;20019;-84
2021/12/07 07:59:26;;;;;;;;;;;;;;;6.10;82.58;100682.81;5096404;28;19924;-84
2021/12/07 08:01:53;;;;;;;;;;;;;;;6.09;82.60;100685.56;5094707;28;19925;-84
2021/12/07 08:04:19;;;;;;;;;;;;;;;6.08;82.24;100681.19;5095197;28;19963;-84
2021/12/07 08:06:45;;;;;;;;;;;;;;;6.06;82.73;100686.56;5097383;28;19924;-83
2021/12/07 08:09:15;;;;;;;;;;;;;;;6.06;82.51;100693.69;5094709;28;19931;-84
2021/12/07 08:11:42;;;;;;;;;;;;;;;6.02;82.64;100693.00;5093527;28;20382;-84
2021/12/07 08:14:10;;;;;;;;;;;;;;;5.99;82.38;100688.72;5092776;28;20691;-84
2021/12/07 08:16:36;;;;;;;;;;;;;;;5.98;82.71;100704.72;5092457;28;19980;-84
2021/12/07 08:19:03;;;;;;;;;;;;;;;5.94;82.49;100703.97;5096340;28;19963;-83
2021/12/07 08:21:30;;;;;;;;;;;;;;;5.88;82.58;100695.50;5094921;28;19935;-83
2021/12/07 08:23:56;;;;;;;;;;;;;;;5.81;82.81;100700.28;5091824;28;19940;-83
2021/12/07 08:26:24;;;;;;;;;;;;;;;5.79;83.31;100692.41;5090588;28;19993;-83
2021/12/07 08:28:51;;;;;;;;;;;;;;;5.79;83.52;100692.41;5094261;28;19955;-84
2021/12/07 08:31:19;;;;;;;;;;;;;;;5.80;83.36;100686.19;5092933;28;19924;-83
2021/12/07 08:33:46;;;;;;;;;;;;;;;5.83;83.61;100690.47;5089888;28;20042;-84
2021/12/07 08:36:13;;;;;;;;;;;;;;;5.83;83.88;100691.31;5095165;28;19935;-84
2021/12/07 08:38:40;;;;;;;;;;;;;;;5.81;83.69;100695.00;5091664;28;19985;-84
2021/12/07 08:41:07;;;;;;;;;;;;;;;5.82;83.61;100688.72;5093343;28;19974;-84
2021/12/07 08:43:35;;;;;;;;;;;;;;;5.82;83.99;100696.69;5087081;28;20127;-84
2021/12/07 08:46:04;;;;;;;;;;;;;;;5.82;83.86;100688.72;5091003;28;19935;-83
2021/12/07 08:48:33;;;;;;;;;;;;;;;5.83;84.22;100686.00;5090679;28;19929;-84
2021/12/07 08:51:00;;;;;;;;;;;;;;;5.83;84.10;100679.84;5085538;28;19932;-83
2021/12/07 08:53:28;;;;;;;;;;;;;;;5.84;84.06;100692.19;5092135;28;19928;-84
2021/12/07 09:01:24;;;;;;;;;;;;;;;5.80;84.28;100691.50;5083420;28;19931;-83
2021/12/07 09:03:53;;;;;;;;;;;;;;;5.80;84.49;100686.19;5085328;28;19984;-83
2021/12/07 09:06:19;;;;;;;;;;;;;;;5.80;84.60;100694.16;5090399;28;20011;-84
2021/12/07 09:08:46;;;;;;;;;;;;;;;5.80;84.77;100690.63;5091156;28;20027;-84
2021/12/07 09:11:13;;;;;;;;;;;;;;;5.82;84.55;100679.00;5090598;28;20000;-84
2021/12/07 09:13:40;;;;;;;;;;;;;;;5.90;84.96;100673.28;5090072;28;19928;-83
2021/12/07 09:16:07;;;;;;;;;;;;;;;5.98;85.08;100678.19;5088453;28;19955;-83
2021/12/07 09:18:34;;;;;;;;;;;;;;;6.04;85.27;100678.69;5087808;28;19989;-83
2021/12/07 09:21:03;;;;;;;;;;;;;;;6.07;84.88;100675.03;5082918;28;20042;-83
2021/12/07 09:23:29;;;;;;;;;;;;;;;6.13;85.18;100673.84;5086166;28;19928;-83
2021/12/07 09:25:56;;;;;;;;;;;;;;;6.18;85.10;100674.44;5080893;28;19942;-84
2021/12/07 09:28:24;;;;;;;;;;;;;;;6.13;84.23;100669.38;5081339;28;22409;-84
2021/12/07 09:30:52;;;;;;;;;;;;;;;6.13;84.69;100666.72;5077178;28;19932;-84
2021/12/07 09:33:19;;;;;;;;;;;;;;;6.13;84.76;100671.19;5085333;28;19928;-84
2021/12/07 09:35:46;;;;;;;;;;;;;;;6.18;85.04;100669.16;5079295;28;20315;-84
2021/12/07 09:38:14;;;;;;;;;;;;;;;6.19;84.77;100677.00;5080178;28;19928;-84
2021/12/07 09:40:41;;;;;;;;;;;;;;;6.19;84.17;100676.13;5078562;28;19985;-84
2021/12/07 09:43:09;;;;;;;;;;;;;;;6.20;84.55;100681.38;5077831;28;19935;-83
2021/12/07 09:45:35;;;;;;;;;;;;;;;6.25;84.84;100681.09;5078205;28;19932;-83
2021/12/07 09:48:04;;;;;;;;;;;;;;;6.30;84.93;100679.03;5081689;28;20597;-83
2021/12/07 09:50:31;;;;;;;;;;;;;;;6.33;84.41;100684.19;5078944;28;20352;-83
2021/12/07 09:52:58;;;;;;;;;;;;;;;6.37;84.15;100693.69;5077457;28;19973;-83
2021/12/07 09:55:28;;;;;;;;;;;;;;;6.35;83.64;100695.56;5078159;28;19928;-83
2021/12/07 09:57:54;;;;;;;;;;;;;;;6.35;83.40;100698.22;5080577;28;19934;-84
2021/12/07 10:00:22;;;;;;;;;;;;;;;6.39;83.68;100709.50;5079043;28;20271;-83
2021/12/07 10:02:49;;;;;;;;;;;;;;;6.42;83.87;100702.25;5076807;28;19928;-84
2021/12/07 10:05:17;;;;;;;;;;;;;;;6.50;83.67;100683.22;5076927;28;20590;-83
2021/12/07 10:07:44;;;;;;;;;;;;;;;6.55;83.73;100680.28;5078017;28;19929;-84
2021/12/07 10:10:18;;;;;;;;;;;;;;;6.64;84.75;100685.06;5080346;28;20374;-84
2021/12/07 10:12:45;;;;;;;;;;;;;;;6.73;84.31;100676.59;5077845;28;19928;-84
2021/12/07 10:15:12;;;;;;;;;;;;;;;6.76;83.71;100678.19;5079346;28;19991;-84
2021/12/07 10:17:42;;;;;;;;;;;;;;;6.79;83.80;100675.38;5077812;28;19934;-84
2021/12/07 10:20:24;;;;;;;;;;;;;;;6.85;82.97;100658.22;5084041;28;19931;-84
2021/12/07 10:22:52;;;;;;;;;;;;;;;6.87;83.60;100662.50;5079859;28;19981;-84
2021/12/07 10:25:25;;;;;;;;;;;;;;;6.94;83.59;100658.53;5083990;28;19928;-84
2021/12/07 10:27:55;;;;;;;;;;;;;;;6.93;82.82;100646.22;5085092;28;19991;-84
2021/12/07 10:30:22;;;;;;;;;;;;;;;7.00;83.04;100633.41;5088635;28;19984;-85
2021/12/07 10:32:56;;;;;;;;;;;;;;;7.12;83.96;100627.38;5088579;28;19971;-84
2021/12/07 10:35:26;;;;;;;;;;;;;;;7.10;81.90;100626.63;5086815;28;19976;-84
2021/12/07 10:38:06;;;;;;;;;;;;;;;7.12;82.78;100618.53;5083616;28;19961;-84
2021/12/07 10:40:32;;;;;;;;;;;;;;;7.15;82.54;100610.38;5084710;28;19949;-83
2021/12/07 10:43:00;;;;;;;;;;;;;;;7.15;81.95;100607.72;5092010;28;19988;-84
2021/12/07 10:45:28;;;;;;;;;;;;;;;7.15;82.08;100595.28;5081746;28;20011;-85
2021/12/07 10:47:54;;;;;;;;;;;;;;;7.21;81.53;100605.56;5082869;28;20015;-83
2021/12/07 10:50:21;;;;;;;;;;;;;;;7.24;81.59;100611.63;5078524;28;19928;-83
2021/12/07 10:52:47;;;;;;;;;;;;;;;7.29;81.30;100601.56;5079609;28;20003;-84
2021/12/07 10:55:15;;;;;;;;;;;;;;;7.34;81.15;100599.47;5087163;28;19931;-84
2021/12/07 10:57:44;;;;;;;;;;;;;;;7.34;80.86;100596.81;5080840;28;19927;-84
2021/12/07 11:00:20;;;;;;;;;;;;;;;7.38;81.87;100596.56;5087016;28;19925;-84
2021/12/07 11:02:48;;;;;;;;;;;;;;;7.37;80.19;100593.97;5082911;28;19936;-84
2021/12/07 11:05:16;;;;;;;;;;;;;;;7.32;80.36;100599.56;5085427;28;20296;-85
2021/12/07 11:07:43;;;;;;;;;;;;;;;7.26;79.32;100610.59;5085112;28;19956;-84
2021/12/07 11:10:15;;;;;;;;;;;;;;;7.30;80.46;100608.59;5092033;28;20427;-84
2021/12/07 11:12:58;;;;;;;;;;;;;;;7.36;79.80;100610.84;5087484;28;19940;-84
2021/12/07 11:15:27;;;;;;;;;;;;;;;7.40;79.94;100596.44;5082083;28;20493;-84
2021/12/07 11:17:56;;;;;;;;;;;;;;;7.45;79.63;100594.34;5079523;28;19972;-84
2021/12/07 11:20:22;;;;;;;;;;;;;;;7.47;79.24;100586.28;5081696;28;20399;-84
2021/12/07 11:22:50;;;;;;;;;;;;;;;7.50;79.46;100586.09;5079056;28;19929;-83
2021/12/07 11:25:53;;;;;;;;;;;;;;;7.50;79.60;100578.97;5082042;28;19928;-84
2021/12/07 11:31:14;;;;;;;;;;;;;;;7.33;77.29;100556.13;5083448;28;20248;-84
2021/12/07 11:33:41;;;;;;;;;;;;;;;7.32;77.30;100561.53;5082769;28;20292;-83
2021/12/07 11:36:14;;;;;;;;;;;;;;;7.29;78.15;100545.78;5082719;28;19939;-84
2021/12/07 11:38:41;;;;;;;;;;;;;;;7.31;77.25;100539.44;5083960;28;19931;-84
2021/12/07 11:41:19;;;;;;;;;;;;;;;7.33;78.81;100536.69;5078510;28;20023;-84
2021/12/07 11:43:56;;;;;;;;;;;;;;;7.39;78.37;100530.97;5085208;28;19934;-84
2021/12/07 11:46:26;;;;;;;;;;;;;;;7.41;78.64;100516.63;5079231;28;20003;-84
2021/12/07 11:49:03;;;;;;;;;;;;;;;7.57;78.97;100512.97;5083854;28;20423;-84
2021/12/07 11:51:31;;;;;;;;;;;;;;;7.71;80.23;100496.16;5085272;28;19927;-84
2021/12/07 11:53:58;;;;;;;;;;;;;;;7.86;79.56;100488.97;5082879;28;19939;-85
2021/12/07 11:56:24;;;;;;;;;;;;;;;7.87;78.34;100478.22;5081596;28;20014;-84
2021/12/07 11:58:51;;;;;;;;;;;;;;;7.91;78.97;100473.56;5082401;28;19935;-85
2021/12/07 12:01:18;;;;;;;;;;;;;;;7.94;78.46;100468.88;5077912;28;19934;-84
2021/12/07 12:03:45;;;;;;;;;;;;;;;7.97;77.96;100462.53;5080619;28;19933;-85
2021/12/07 12:06:13;;;;;;;;;;;;;;;7.94;77.93;100454.75;5083992;28;19978;-85
2021/12/07 12:08:40;;;;;;;;;;;;;;;7.95;78.06;100449.34;5076667;28;20369;-84
2021/12/07 12:11:12;;;;;;;;;;;;;;;8.11;78.65;100459.78;5079894;28;20023;-84
2021/12/07 12:13:44;;;;;;;;;;;;;;;8.22;79.43;100443.09;5076595;28;19947;-84
2021/12/07 12:16:17;;;;;;;;;;;;;;;8.29;78.86;100439.06;5079811;28;19932;-84
2021/12/07 12:18:54;;;;;;;;;;;;;;;8.28;77.73;100437.34;5079211;28;19932;-83
2021/12/07 12:21:27;;;;;;;;;;;;;;;8.17;76.37;100434.56;5079007;28;19935;-84
2021/12/07 12:24:06;;;;;;;;;;;;;;;8.10;76.13;100434.16;5076175;28;19928;-84
2021/12/07 12:26:34;;;;;;;;;;;;;;;8.02;73.86;100414.34;5079370;28;19934;-84
2021/12/07 12:29:01;;;;;;;;;;;;;;;7.91;74.17;100413.28;5076593;28;19940;-84
2021/12/07 12:31:44;;;;;;;;;;;;;;;7.92;76.51;100411.47;5078231;28;20237;-84
2021/12/07 12:34:16;;;;;;;;;;;;;;;7.99;76.02;100402.13;5080263;28;19978;-84
2021/12/07 12:36:54;;;;;;;;;;;;;;;8.06;76.70;100381.25;5080936;28;20046;-84
2021/12/07 12:39:21;;;;;;;;;;;;;;;8.05;76.39;100361.78;5071809;28;19928;-84
2021/12/07 12:41:59;;;;;;;;;;;;;;;8.01;75.87;100381.59;5077467;28;19935;-85
2021/12/07 12:44:27;;;;;;;;;;;;;;;7.96;74.86;100371.25;5076933;28;20390;-84
2021/12/07 12:46:59;;;;;;;;;;;;;;;7.88;74.17;100344.34;5081845;28;19928;-84
2021/12/07 12:49:36;;;;;;;;;;;;;;;7.91;75.82;100349.47;5076996;28;19932;-84
2021/12/07 12:52:02;;;;;;;;;;;;;;;7.85;75.48;100335.72;5078952;28;20015;-84
2021/12/07 12:54:37;;;;;;;;;;;;;;;7.86;74.89;100342.75;5079383;28;19932;-85
2021/12/07 12:57:08;;;;;;;;;;;;;;;7.83;74.17;100330.50;5082175;28;20026;-85
2021/12/07 12:59:37;;;;;;;;;;;;;;;7.77;74.76;100321.13;5082106;28;19928;-85
2021/12/07 13:02:03;;;;;;;;;;;;;;;7.75;75.05;100320.38;5082744;28;19971;-84
2021/12/07 13:04:34;;;;;;;;;;;;;;;7.79;74.63;100326.34;5081482;28;19929;-84
2021/12/07 13:07:06;;;;;;;;;;;;;;;7.75;75.13;100304.44;5082085;28;19958;-84
2021/12/07 13:09:37;;;;;;;;;;;;;;;7.77;74.53;100299.03;5084301;28;19949;-85
2021/12/07 13:12:04;;;;;;;;;;;;;;;7.78;75.64;100290.94;5081986;28;19962;-84
2021/12/07 13:14:36;;;;;;;;;;;;;;;7.84;75.53;100284.34;5083937;28;20269;-83
2021/12/07 13:17:04;;;;;;;;;;;;;;;7.87;75.68;100280.63;5080597;28;19932;-83
2021/12/07 13:19:33;;;;;;;;;;;;;;;7.86;74.37;100279.78;5079884;28;19928;-85
2021/12/07 13:22:03;;;;;;;;;;;;;;;7.82;74.99;100270.31;5084732;28;19935;-84
2021/12/07 13:24:34;;;;;;;;;;;;;;;7.81;75.38;100263.28;5083391;28;20441;-84
2021/12/07 13:27:09;;;;;;;;;;;;;;;7.83;75.03;100252.56;5085919;28;19938;-85
2021/12/07 13:29:37;;;;;;;;;;;;;;;7.87;75.76;100246.91;5084580;28;20019;-84
2021/12/07 13:32:05;;;;;;;;;;;;;;;7.87;75.60;100249.56;5083918;28;19975;-85
2021/12/07 13:34:34;;;;;;;;;;;;;;;7.88;75.25;100232.66;5081479;28;20410;-85
2021/12/07 13:37:02;;;;;;;;;;;;;;;7.91;74.89;100237.78;5084609;28;19974;-85
2021/12/07 13:39:38;;;;;;;;;;;;;;;7.87;74.95;100219.47;5083191;28;20332;-85
2021/12/07 13:42:07;;;;;;;;;;;;;;;7.86;74.71;100231.94;5084310;28;19924;-84
2021/12/07 13:44:37;;;;;;;;;;;;;;;7.83;74.95;100226.81;5085882;28;20403;-84
2021/12/07 13:47:05;;;;;;;;;;;;;;;7.83;75.61;100218.84;5081929;28;19929;-85
2021/12/07 13:49:34;;;;;;;;;;;;;;;7.84;75.29;100220.56;5082139;28;20373;-84
2021/12/07 13:52:01;;;;;;;;;;;;;;;7.71;74.47;100199.28;5086933;28;19971;-84
2021/12/07 13:54:27;;;;;;;;;;;;;;;7.69;75.03;100185.25;5083770;28;19963;-85
2021/12/07 13:56:54;;;;;;;;;;;;;;;7.61;74.17;100195.59;5086064;28;19932;-86
2021/12/07 13:59:22;;;;;;;;;;;;;;;7.53;74.51;100196.09;5089981;28;19999;-86
2021/12/07 14:01:50;;;;;;;;;;;;;;;7.52;74.70;100197.06;5085897;28;19931;-85
2021/12/07 14:04:16;;;;;;;;;;;;;;;7.47;74.67;100191.22;5091384;28;19983;-85
2021/12/07 14:06:47;;;;;;;;;;;;;;;7.46;74.79;100189.53;5088032;28;19997;-86
2021/12/07 14:09:14;;;;;;;;;;;;;;;7.46;74.92;100188.66;5086069;28;20291;-86
2021/12/07 14:11:40;;;;;;;;;;;;;;;7.47;75.29;100191.22;5085688;28;19925;-84
2021/12/07 14:14:08;;;;;;;;;;;;;;;7.48;75.16;100200.91;5091068;28;20027;-85
2021/12/07 14:16:34;;;;;;;;;;;;;;;7.49;75.76;100191.97;5085681;28;19933;-85
2021/12/07 14:19:01;;;;;;;;;;;;;;;7.48;75.93;100181.44;5086211;28;20373;-85
2021/12/07 14:21:28;;;;;;;;;;;;;;;7.51;75.54;100186.53;5086576;28;19932;-85
2021/12/07 14:24:04;;;;;;;;;;;;;;;7.50;76.06;100185.69;5087564;28;20017;-85
2021/12/07 14:26:31;;;;;;;;;;;;;;;7.46;75.34;100175.38;5085830;28;19924;-86